createdAt,value
2022-11-12T00:05:01.255Z,102685.50
2022-11-12T00:12:21.406Z,102687.44
2022-11-12T00:19:41.658Z,102685.78
2022-11-12T00:27:01.925Z,102692.25
2022-11-12T00:34:22.114Z,102683.44
2022-11-12T00:41:42.387Z,102682.72
2022-11-12T00:49:02.658Z,102679.38
2022-11-12T00:56:25.941Z,102681.31
2022-11-12T01:03:46.009Z,102681.53
2022-11-12T01:11:10.863Z,102675.41
2022-11-12T01:18:30.963Z,102677.41
2022-11-12T01:25:51.203Z,102670.34
2022-11-12T01:33:11.577Z,102689.38
2022-11-12T01:40:34.756Z,102681.41
2022-11-12T01:47:54.741Z,102686.06
2022-11-12T01:55:17.198Z,102693.41
2022-11-12T02:02:37.924Z,102688.94
2022-11-12T02:09:59.411Z,102694.28
2022-11-12T02:17:19.365Z,102698.69
2022-11-12T02:24:39.713Z,102696.91
2022-11-12T02:32:00.152Z,102701.41
2022-11-12T02:39:20.541Z,102706.78
2022-11-12T02:46:41.137Z,102720.28
2022-11-12T02:54:01.359Z,102728.31
2022-11-12T03:01:21.714Z,102739.91
2022-11-12T03:08:41.825Z,102742.63
2022-11-12T03:16:02.162Z,102746.22
2022-11-12T03:23:22.498Z,102760.53
2022-11-12T03:30:43.153Z,102759.69
2022-11-12T03:38:03.091Z,102760.66
2022-11-12T03:45:24.207Z,102755.41
2022-11-12T03:52:48.315Z,102751.94
2022-11-12T04:00:09.115Z,102754.78
2022-11-12T04:07:47.411Z,102754.06
2022-11-12T04:15:08.066Z,102757.81
2022-11-12T04:22:28.184Z,102757.06
2022-11-12T04:30:06.999Z,102763.47
2022-11-12T04:37:28.297Z,102769.91
2022-11-12T04:45:04.680Z,102770.91
2022-11-12T04:52:25.247Z,102774.66
2022-11-12T04:59:45.964Z,102779.25
2022-11-12T05:07:06.084Z,102788.28
2022-11-12T05:14:25.956Z,102779.50
2022-11-12T05:22:04.807Z,102784.94
2022-11-12T05:29:25.110Z,102807.47
2022-11-12T05:36:45.356Z,102797.78
2022-11-12T05:44:05.777Z,102799.59
2022-11-12T05:51:25.788Z,102802.34
2022-11-12T05:58:46.034Z,102803.41
2022-11-12T06:06:06.579Z,102807.13
2022-11-12T06:13:26.875Z,102804.53
2022-11-12T06:21:06.988Z,102798.28
2022-11-12T06:28:27.455Z,102811.78
2022-11-12T06:35:47.968Z,102818.16
2022-11-12T06:43:08.261Z,102833.44
2022-11-12T06:50:28.527Z,102843.38
2022-11-12T06:57:52.574Z,102844.31
2022-11-12T07:05:12.544Z,102857.78
2022-11-12T07:12:32.933Z,102862.22
2022-11-12T07:19:53.058Z,102857.63
2022-11-12T07:27:13.328Z,102868.19
2022-11-12T07:34:33.570Z,102877.81
2022-11-12T07:41:53.947Z,102876.69
2022-11-12T07:49:15.417Z,102875.56
2022-11-12T07:56:35.228Z,102876.13
2022-11-12T08:03:55.442Z,102865.88
2022-11-12T08:11:15.696Z,102869.06
2022-11-12T08:18:36.085Z,102876.84
2022-11-12T08:26:00.434Z,102878.41
2022-11-12T08:33:20.293Z,102880.84
2022-11-12T08:40:40.708Z,102877.13
2022-11-12T08:48:05.292Z,102877.69
2022-11-12T08:55:25.158Z,102882.09
2022-11-12T09:02:45.401Z,102879.22
2022-11-12T09:10:06.205Z,102882.59
2022-11-12T09:17:29.061Z,102886.88
2022-11-12T09:24:49.361Z,102889.16
2022-11-12T09:32:09.713Z,102882.66
2022-11-12T09:39:29.922Z,102884.22
2022-11-12T09:46:53.826Z,102872.28
2022-11-12T09:54:46.445Z,102864.91
2022-11-12T10:02:32.846Z,102882.38
2022-11-12T10:10:01.347Z,102865.84
2022-11-12T10:17:41.727Z,102866.44
2022-11-12T10:25:14.702Z,102862.81
2022-11-12T10:32:35.167Z,102893.44
2022-11-12T10:39:55.313Z,102851.59
2022-11-12T10:47:26.381Z,102847.78
2022-11-12T10:54:49.659Z,102853.84
2022-11-12T11:02:17.665Z,102854.75
2022-11-12T11:09:37.712Z,102853.44
2022-11-12T11:17:08.321Z,102850.00
2022-11-12T11:24:54.369Z,102835.22
2022-11-12T11:32:53.744Z,102822.16
2022-11-12T11:40:15.977Z,102827.84
2022-11-12T11:47:59.487Z,102822.34
2022-11-12T11:55:20.651Z,102819.34
2022-11-12T12:03:12.929Z,102826.50
2022-11-12T12:11:10.730Z,102824.19
2022-11-12T12:18:51.268Z,102809.38
2022-11-12T12:26:14.601Z,102822.09
2022-11-12T12:33:43.808Z,102816.38
2022-11-12T12:41:16.151Z,102818.53
2022-11-12T12:48:38.598Z,102806.94
2022-11-12T12:56:05.916Z,102789.16
2022-11-12T13:03:44.914Z,102780.59
2022-11-12T13:11:05.302Z,102774.56
2022-11-12T13:18:37.738Z,102779.88
2022-11-12T13:26:36.504Z,102780.78
2022-11-12T13:33:56.565Z,102780.19
2022-11-12T13:41:41.529Z,102773.91
2022-11-12T13:49:14.970Z,102778.44
2022-11-12T13:56:35.654Z,102789.31
2022-11-12T14:03:56.129Z,102780.56
2022-11-12T14:11:41.942Z,102782.50
2022-11-12T14:19:26.438Z,102778.91
2022-11-12T14:26:46.434Z,102776.38
2022-11-12T14:34:22.372Z,102775.59
2022-11-12T14:41:42.705Z,102769.75
2022-11-12T14:49:03.531Z,102764.69
2022-11-12T14:56:38.222Z,102757.75
2022-11-12T15:04:13.314Z,102763.41
2022-11-12T15:11:33.166Z,102753.84
2022-11-12T15:19:25.960Z,102766.78
2022-11-12T15:26:47.709Z,102766.91
2022-11-12T15:34:30.266Z,102766.28
2022-11-12T15:42:04.441Z,102754.84
2022-11-12T15:49:24.746Z,102765.94
2022-11-12T15:56:45.097Z,102766.13
2022-11-12T16:04:05.221Z,102779.09
2022-11-12T16:11:37.588Z,102782.09
2022-11-12T16:18:57.465Z,102783.28
2022-11-12T16:26:21.298Z,102773.69
2022-11-12T16:33:41.591Z,102781.19
2022-11-12T16:41:01.883Z,102784.97
2022-11-12T16:48:22.320Z,102791.56
2022-11-12T16:55:42.568Z,102773.81
2022-11-12T17:03:03.052Z,102782.09
2022-11-12T17:10:24.009Z,102776.00
2022-11-12T17:17:44.148Z,102776.22
2022-11-12T17:25:05.819Z,102764.75
2022-11-12T17:32:26.093Z,102769.38
2022-11-12T17:39:46.427Z,102769.47
2022-11-12T17:47:06.789Z,102769.66
2022-11-12T17:54:26.915Z,102782.47
2022-11-12T18:01:47.166Z,102784.47
2022-11-12T18:09:08.604Z,102776.56
2022-11-12T18:16:28.775Z,102785.69
2022-11-12T18:23:48.923Z,102789.50
2022-11-12T18:31:11.067Z,102781.59
2022-11-12T18:38:34.784Z,102785.38
2022-11-12T18:45:55.936Z,102781.94
2022-11-12T18:53:17.002Z,102788.41
2022-11-12T19:00:37.277Z,102784.91
2022-11-12T19:07:57.609Z,102786.75
2022-11-12T19:15:19.059Z,102793.94
2022-11-12T19:22:41.713Z,102785.91
2022-11-12T19:30:03.501Z,102793.00
2022-11-12T19:37:39.093Z,102791.97
2022-11-12T19:44:59.067Z,102797.28
2022-11-12T19:52:19.600Z,102789.09
2022-11-12T19:59:42.768Z,102788.13
2022-11-12T20:07:02.852Z,102787.13
2022-11-12T20:14:22.793Z,102781.56
2022-11-12T20:21:42.989Z,102793.13
2022-11-12T20:29:03.326Z,102789.44
2022-11-12T20:36:23.913Z,102789.28
2022-11-12T20:43:44.236Z,102788.31
2022-11-12T20:51:28.652Z,102775.63
2022-11-12T20:58:49.263Z,102780.94
2022-11-12T21:06:11.660Z,102784.53
2022-11-12T21:13:33.586Z,102774.53
2022-11-12T21:21:09.764Z,102769.25
2022-11-12T21:28:31.103Z,102762.91
2022-11-12T21:35:54.097Z,102759.25
2022-11-12T21:43:14.434Z,102763.72
2022-11-12T21:50:34.875Z,102747.50
2022-11-12T21:57:55.077Z,102747.38
2022-11-12T22:05:15.417Z,102741.13
2022-11-12T22:12:35.662Z,102743.88
2022-11-12T22:19:55.853Z,102728.81
2022-11-12T22:27:16.178Z,102727.03
2022-11-12T22:34:36.454Z,102719.78
2022-11-12T22:41:56.919Z,102719.81
2022-11-12T22:49:17.121Z,102709.91
2022-11-12T22:56:39.044Z,102706.25
2022-11-12T23:04:00.591Z,102708.94
2022-11-12T23:11:21.010Z,102704.38
2022-11-12T23:18:41.102Z,102698.94
2022-11-12T23:26:28.682Z,102692.56
2022-11-12T23:33:49.883Z,102695.34
2022-11-12T23:41:10.798Z,102696.31
2022-11-12T23:48:31.313Z,102695.28
2022-11-12T23:55:52.168Z,102682.56
